Time;durP1;ratioP1;P1;durP2;ratioP2;P2;SDS_P1;SDS_P2;PMS_P1;PMS_P2;Temp;Humidity;BMP_temperature;BMP_pressure;BME280_temperature;BME280_humidity;BME280_pressure;Samples;Min_cycle;Max_cycle;Signal;HPM_P1;HPM_P2
2021/05/16 00:04:31;;;;;;;5.32;1.70;;;10.00;99.90;;;;;;12160257;29;20051;-78
2021/05/16 00:10:33;;;;;;;3.53;1.85;;;9.90;99.90;;;;;;12145813;29;20127;-78
2021/05/16 00:16:36;;;;;;;6.47;2.10;;;9.90;99.90;;;;;;12155182;28;20119;-78
2021/05/16 00:22:39;;;;;;;4.90;2.40;;;9.90;99.90;;;;;;12154036;29;20123;-78
2021/05/16 00:28:40;;;;;;;5.70;3.20;;;10.00;99.90;;;;;;12159587;28;20106;-78
2021/05/16 00:34:43;;;;;;;5.32;2.60;;;9.90;99.90;;;;;;12192721;28;20525;-78
2021/05/16 00:40:44;;;;;;;5.65;3.60;;;9.90;99.90;;;;;;12200280;28;20047;-78
2021/05/16 00:46:46;;;;;;;4.95;3.28;;;9.90;99.90;;;;;;12205231;28;20056;-78
2021/05/16 00:52:48;;;;;;;8.13;3.50;;;9.70;99.90;;;;;;12205661;28;20209;-78
2021/05/16 00:58:51;;;;;;;6.68;3.38;;;9.70;99.90;;;;;;12204322;28;20076;-79
2021/05/16 01:04:53;;;;;;;6.00;3.65;;;9.70;99.90;;;;;;12205092;28;20075;-78
2021/05/16 01:10:54;;;;;;;7.60;3.80;;;9.70;99.90;;;;;;12197161;28;20174;-78
2021/05/16 01:16:57;;;;;;;7.50;3.92;;;9.70;99.90;;;;;;12196924;28;20044;-78
2021/05/16 01:23:02;;;;;;;6.55;3.90;;;9.80;99.90;;;;;;12198133;28;20136;-78
2021/05/16 01:29:04;;;;;;;7.32;4.20;;;9.90;99.90;;;;;;12200245;28;20103;-78
2021/05/16 01:35:07;;;;;;;8.13;3.90;;;9.90;99.90;;;;;;12203311;28;20563;-79
2021/05/16 01:41:09;;;;;;;8.98;4.78;;;9.80;99.90;;;;;;12194260;29;20618;-78
2021/05/16 01:47:12;;;;;;;10.63;4.95;;;9.80;99.90;;;;;;12202672;28;20056;-79
2021/05/16 01:53:17;;;;;;;13.25;5.75;;;9.70;99.90;;;;;;12200886;28;20417;-79
2021/05/16 01:59:19;;;;;;;12.55;6.32;;;9.50;99.90;;;;;;12213385;29;20554;-78
2021/05/16 02:05:22;;;;;;;15.23;6.40;;;9.50;99.90;;;;;;12198166;29;20127;-79
2021/05/16 02:11:24;;;;;;;13.18;6.10;;;9.40;99.90;;;;;;12200756;29;20047;-79
2021/05/16 02:17:26;;;;;;;13.75;6.85;;;9.40;99.90;;;;;;12201745;28;20531;-79
2021/05/16 02:23:28;;;;;;;11.75;6.65;;;9.40;99.90;;;;;;12196482;29;20069;-78
2021/05/16 02:29:31;;;;;;;13.23;7.53;;;9.50;99.90;;;;;;12199334;28;20185;-79
2021/05/16 02:35:32;;;;;;;16.55;8.40;;;9.60;99.90;;;;;;12192416;29;20083;-78
2021/05/16 02:41:34;;;;;;;16.67;8.43;;;9.60;99.90;;;;;;12194208;28;20072;-79
2021/05/16 02:47:36;;;;;;;18.52;8.88;;;9.70;99.90;;;;;;12200723;28;20090;-79
2021/05/16 02:53:38;;;;;;;15.52;9.13;;;9.70;99.90;;;;;;12198457;28;20118;-79
2021/05/16 02:59:40;;;;;;;16.60;8.65;;;9.70;99.90;;;;;;12189570;29;20109;-79
2021/05/16 03:05:42;;;;;;;15.18;8.13;;;9.60;99.90;;;;;;12197920;28;20534;-79
2021/05/16 03:11:44;;;;;;;15.20;7.47;;;9.70;99.90;;;;;;12197238;29;20048;-77
2021/05/16 03:17:46;;;;;;;17.27;7.45;;;9.70;99.90;;;;;;12305414;28;20059;-78
2021/05/16 03:23:48;;;;;;;17.35;7.28;;;9.70;99.90;;;;;;12254495;28;20028;-79
2021/05/16 03:29:50;;;;;;;19.08;6.72;;;9.70;99.90;;;;;;12206383;28;21049;-78
2021/05/16 03:35:53;;;;;;;16.25;6.95;;;9.70;99.90;;;;;;12200905;29;20044;-78
2021/05/16 03:41:56;;;;;;;20.33;7.38;;;9.70;99.90;;;;;;12198435;28;20523;-78
2021/05/16 03:47:58;;;;;;;17.50;8.30;;;9.70;99.90;;;;;;12194542;28;20056;-78
2021/05/16 03:54:00;;;;;;;12.65;7.68;;;9.60;99.90;;;;;;12207717;28;20098;-79
2021/05/16 04:00:04;;;;;;;15.32;6.60;;;9.60;99.90;;;;;;12211036;29;20087;-79
2021/05/16 04:06:07;;;;;;;19.88;7.25;;;9.60;99.90;;;;;;12202421;28;20592;-78
2021/05/16 04:12:08;;;;;;;16.38;7.50;;;9.50;99.90;;;;;;12206088;28;20131;-78
2021/05/16 04:18:10;;;;;;;15.57;7.57;;;9.50;99.90;;;;;;12208213;28;20041;-78
2021/05/16 04:24:13;;;;;;;20.98;8.45;;;9.50;99.90;;;;;;12176575;28;20081;-78
2021/05/16 04:30:15;;;;;;;19.80;9.10;;;9.50;99.90;;;;;;12171671;28;20175;-78
2021/05/16 04:36:17;;;;;;;19.35;9.43;;;9.50;99.90;;;;;;12212233;28;20060;-78
2021/05/16 04:42:19;;;;;;;19.85;10.15;;;9.50;99.90;;;;;;12215416;28;20420;-78
2021/05/16 04:48:21;;;;;;;26.10;11.32;;;9.50;99.90;;;;;;12218280;28;20107;-78
2021/05/16 04:54:23;;;;;;;21.98;11.02;;;9.50;99.90;;;;;;12200314;28;20095;-79
2021/05/16 05:00:25;;;;;;;25.52;9.80;;;9.50;99.90;;;;;;12195429;28;20154;-79
2021/05/16 05:06:28;;;;;;;20.95;9.00;;;9.50;99.90;;;;;;12217568;28;20095;-79
2021/05/16 05:12:31;;;;;;;22.10;9.35;;;9.60;99.90;;;;;;12210368;28;20044;-79
2021/05/16 05:18:33;;;;;;;30.17;8.60;;;9.70;99.90;;;;;;12204599;28;20484;-78
2021/05/16 05:24:35;;;;;;;21.10;8.20;;;9.70;99.90;;;;;;12204395;28;20186;-79
2021/05/16 05:30:36;;;;;;;26.35;7.32;;;9.80;99.90;;;;;;12202118;28;20130;-79
2021/05/16 05:36:39;;;;;;;21.15;7.45;;;9.80;99.90;;;;;;12203554;28;20354;-79
2021/05/16 05:42:41;;;;;;;18.30;6.70;;;9.80;99.90;;;;;;12213063;28;20130;-79
2021/05/16 05:48:43;;;;;;;22.33;5.50;;;9.90;99.90;;;;;;12203087;28;20143;-78
2021/05/16 05:54:45;;;;;;;25.40;6.13;;;9.90;99.90;;;;;;12214727;28;20151;-79
2021/05/16 06:00:47;;;;;;;16.55;5.57;;;9.90;99.90;;;;;;12211759;28;20131;-79
2021/05/16 06:06:49;;;;;;;23.73;5.68;;;10.00;99.90;;;;;;12203830;28;20091;-80
2021/05/16 06:12:52;;;;;;;19.40;5.65;;;10.00;99.90;;;;;;12208356;28;20083;-80
2021/05/16 06:18:56;;;;;;;24.88;7.25;;;10.00;99.90;;;;;;12204481;28;20068;-80
2021/05/16 06:24:58;;;;;;;26.50;6.93;;;10.00;99.90;;;;;;12205098;28;20083;-79
2021/05/16 06:30:59;;;;;;;23.27;7.57;;;10.00;99.90;;;;;;12201475;28;20059;-79
2021/05/16 06:37:03;;;;;;;26.73;6.55;;;10.10;99.90;;;;;;12206119;28;20743;-79
2021/05/16 06:43:05;;;;;;;16.17;5.20;;;10.10;99.90;;;;;;12204665;28;21022;-79
2021/05/16 06:49:07;;;;;;;22.83;5.95;;;10.30;99.90;;;;;;12202458;28;20090;-79
2021/05/16 06:55:10;;;;;;;13.77;4.40;;;10.50;99.90;;;;;;12199284;28;20136;-79
2021/05/16 07:01:11;;;;;;;16.17;4.13;;;10.50;99.90;;;;;;12214293;28;20086;-80
2021/05/16 07:07:13;;;;;;;15.88;3.72;;;10.60;99.90;;;;;;12206365;28;20729;-80
2021/05/16 07:13:15;;;;;;;14.32;3.67;;;10.80;99.90;;;;;;12215164;28;20044;-79
2021/05/16 07:19:17;;;;;;;17.67;3.88;;;10.80;99.90;;;;;;12200194;28;20143;-79
2021/05/16 07:25:19;;;;;;;20.95;4.30;;;10.80;99.90;;;;;;12200432;28;20091;-79
2021/05/16 07:31:21;;;;;;;23.73;4.78;;;10.90;99.90;;;;;;12206675;28;20075;-79
2021/05/16 07:37:23;;;;;;;14.25;4.40;;;11.10;99.90;;;;;;12230302;28;20091;-80
2021/05/16 07:43:25;;;;;;;18.90;5.50;;;11.20;99.90;;;;;;12208137;28;20738;-79
2021/05/16 07:49:28;;;;;;;16.30;6.43;;;11.20;99.90;;;;;;12221971;28;20072;-79
2021/05/16 07:55:30;;;;;;;17.10;6.80;;;11.10;99.90;;;;;;12210491;28;20147;-80
2021/05/16 08:01:32;;;;;;;19.52;7.00;;;11.10;99.90;;;;;;12207822;28;20079;-80
2021/05/16 08:07:35;;;;;;;15.30;7.35;;;11.80;99.90;;;;;;12207489;28;20978;-80
2021/05/16 08:13:37;;;;;;;16.95;7.15;;;11.80;99.90;;;;;;12195240;28;20040;-80
2021/05/16 08:19:38;;;;;;;12.90;6.63;;;11.90;99.90;;;;;;12212973;28;20075;-80
2021/05/16 08:25:41;;;;;;;14.88;6.57;;;12.00;99.90;;;;;;12207100;28;20110;-79
2021/05/16 08:31:43;;;;;;;17.38;7.10;;;12.20;99.90;;;;;;12290354;28;20172;-79
2021/05/16 08:37:46;;;;;;;15.55;6.20;;;12.30;99.90;;;;;;12205119;28;20499;-80
2021/05/16 08:43:47;;;;;;;16.55;6.28;;;12.00;99.90;;;;;;12209851;28;20044;-80
2021/05/16 08:49:50;;;;;;;20.58;6.22;;;12.20;99.90;;;;;;12213977;28;20468;-79
2021/05/16 08:55:53;;;;;;;16.48;5.03;;;13.30;99.90;;;;;;12161880;28;20075;-80
2021/05/16 09:02:00;;;;;;;14.85;5.07;;;13.10;99.90;;;;;;12159169;28;20055;-80
2021/05/16 09:08:12;;;;;;;14.80;4.50;;;13.00;99.90;;;;;;12153623;29;20055;-80
2021/05/16 09:14:14;;;;;;;10.98;4.13;;;12.90;99.90;;;;;;12191079;29;20052;-80
2021/05/16 09:20:23;;;;;;;13.70;4.65;;;13.00;99.90;;;;;;12245934;28;20096;-81
2021/05/16 09:26:29;;;;;;;15.40;4.40;;;13.40;99.90;;;;;;12246750;28;20052;-80
2021/05/16 09:32:30;;;;;;;10.63;3.85;;;13.90;99.90;;;;;;12211694;29;20101;-79
2021/05/16 09:38:33;;;;;;;10.25;4.32;;;13.90;99.90;;;;;;12219623;29;20047;-79
2021/05/16 09:44:45;;;;;;;12.18;4.72;;;13.50;99.90;;;;;;12182550;28;20410;-79
2021/05/16 09:51:12;;;;;;;12.10;3.08;;;13.80;99.90;;;;;;12176134;28;20059;-81
2021/05/16 09:57:14;;;;;;;15.18;3.55;;;13.50;99.90;;;;;;12203831;28;20143;-79
2021/05/16 10:03:16;;;;;;;13.98;3.63;;;13.40;99.90;;;;;;12205300;29;20052;-80
2021/05/16 10:09:18;;;;;;;11.63;3.40;;;13.40;99.90;;;;;;12203986;28;20131;-80
2021/05/16 10:15:23;;;;;;;13.18;4.13;;;13.70;99.90;;;;;;12201253;28;20071;-79
2021/05/16 10:21:25;;;;;;;10.32;4.72;;;14.00;99.90;;;;;;12203279;28;20052;-79
2021/05/16 10:27:30;;;;;;;13.00;5.82;;;14.80;99.90;;;;;;12203661;28;20062;-80
2021/05/16 10:33:33;;;;;;;13.65;4.93;;;14.80;99.90;;;;;;12206141;28;20139;-80
2021/05/16 10:39:38;;;;;;;17.08;5.05;;;15.20;99.90;;;;;;12196427;28;20059;-80
2021/05/16 10:45:40;;;;;;;17.63;5.25;;;14.60;99.90;;;;;;12213148;28;20139;-80
2021/05/16 10:51:42;;;;;;;11.27;4.13;;;14.10;99.90;;;;;;12206919;28;20108;-80
2021/05/16 10:57:43;;;;;;;12.15;3.90;;;14.00;99.90;;;;;;12210192;28;20068;-80
2021/05/16 11:03:51;;;;;;;12.93;2.70;;;14.70;99.90;;;;;;12204391;28;20048;-80
2021/05/16 11:10:22;;;;;;;12.95;2.70;;;14.60;99.90;;;;;;12214300;28;20055;-80
2021/05/16 11:16:24;;;;;;;8.65;2.08;;;13.80;99.90;;;;;;12210036;28;21327;-80
2021/05/16 11:22:26;;;;;;;13.40;2.80;;;13.90;99.90;;;;;;12212570;28;20611;-80
2021/05/16 11:28:30;;;;;;;9.43;2.60;;;14.20;99.90;;;;;;12217614;28;20141;-80
2021/05/16 11:34:32;;;;;;;11.23;2.40;;;14.90;99.90;;;;;;12201285;28;20536;-80
2021/05/16 11:40:37;;;;;;;13.38;2.28;;;14.40;99.90;;;;;;12204656;28;20086;-80
2021/05/16 11:46:44;;;;;;;8.35;1.90;;;14.80;99.90;;;;;;12215199;28;20490;-80
2021/05/16 11:52:46;;;;;;;13.55;3.08;;;15.30;99.90;;;;;;12204914;28;20078;-80
2021/05/16 11:58:56;;;;;;;8.20;2.13;;;16.40;99.90;;;;;;12202657;28;21405;-80
2021/05/16 12:04:58;;;;;;;9.25;2.33;;;16.80;99.90;;;;;;12208772;28;20941;-80
2021/05/16 12:11:06;;;;;;;12.82;2.30;;;16.40;99.90;;;;;;12207204;28;20054;-81
2021/05/16 12:17:08;;;;;;;8.07;2.13;;;17.50;99.90;;;;;;12213982;28;20186;-81
2021/05/16 12:23:10;;;;;;;10.25;2.25;;;18.00;99.90;;;;;;12214525;28;20044;-81
2021/05/16 12:29:16;;;;;;;10.32;2.60;;;17.50;99.90;;;;;;12215716;28;20397;-81
2021/05/16 12:35:18;;;;;;;8.32;2.63;;;17.00;99.90;;;;;;12217549;28;20528;-80
2021/05/16 12:41:27;;;;;;;9.88;2.53;;;16.80;99.90;;;;;;12213011;28;20052;-81
2021/05/16 12:47:29;;;;;;;7.78;1.90;;;15.60;99.90;;;;;;12211153;28;20043;-80
2021/05/16 12:53:35;;;;;;;10.55;2.15;;;14.70;99.90;;;;;;12210286;28;20079;-81
2021/05/16 12:59:38;;;;;;;5.43;1.58;;;14.90;99.90;;;;;;12207015;28;20047;-80
2021/05/16 13:05:47;;;;;;;5.73;1.63;;;15.10;99.90;;;;;;12206040;28;20166;-80
2021/05/16 13:11:57;;;;;;;4.78;1.30;;;15.30;99.90;;;;;;12201552;28;20816;-81
2021/05/16 13:17:59;;;;;;;3.97;1.55;;;16.50;99.90;;;;;;12225316;28;20054;-80
2021/05/16 13:24:05;;;;;;;9.48;1.23;;;16.90;99.90;;;;;;12219704;28;20400;-80
2021/05/16 13:30:10;;;;;;;2.97;0.90;;;17.20;99.90;;;;;;12222407;28;20094;-81
2021/05/16 13:36:13;;;;;;;3.35;0.80;;;17.10;99.90;;;;;;12207933;28;20512;-81
2021/05/16 13:42:15;;;;;;;2.70;1.20;;;17.20;99.90;;;;;;12222154;28;20048;-81
2021/05/16 13:48:17;;;;;;;3.88;1.00;;;17.00;99.90;;;;;;12214127;28;20462;-81
2021/05/16 13:54:22;;;;;;;7.50;1.55;;;16.10;99.90;;;;;;12208474;28;20135;-81
2021/05/16 14:00:24;;;;;;;8.10;1.50;;;16.60;99.90;;;;;;12212358;28;20841;-81
2021/05/16 14:06:26;;;;;;;6.35;1.60;;;17.30;99.90;;;;;;12212641;28;20491;-80
2021/05/16 14:12:27;;;;;;;6.85;1.80;;;17.50;99.90;;;;;;12210784;28;20048;-81
2021/05/16 14:18:29;;;;;;;7.25;1.52;;;18.10;99.90;;;;;;12208288;28;20040;-81
2021/05/16 14:24:31;;;;;;;6.07;1.42;;;17.70;99.90;;;;;;12245614;28;20044;-80
2021/05/16 14:30:34;;;;;;;6.47;1.60;;;17.10;99.90;;;;;;12233249;28;20052;-81
2021/05/16 14:36:36;;;;;;;3.93;1.33;;;16.90;99.90;;;;;;12151242;28;20075;-80
2021/05/16 14:42:38;;;;;;;4.57;1.40;;;17.30;99.90;;;;;;12159077;28;20079;-82
2021/05/16 14:48:40;;;;;;;6.47;1.33;;;17.20;99.90;;;;;;12156661;28;20060;-81
2021/05/16 14:54:43;;;;;;;4.75;1.05;;;17.50;99.90;;;;;;12269203;28;20433;-81
2021/05/16 15:00:45;;;;;;;6.00;1.10;;;17.80;99.90;;;;;;12193455;29;20139;-81
2021/05/16 15:06:49;;;;;;;3.25;0.90;;;17.90;99.90;;;;;;12204157;28;20083;-80
2021/05/16 15:12:51;;;;;;;4.22;0.98;;;18.40;99.90;;;;;;12206487;28;20117;-80
2021/05/16 15:18:53;;;;;;;3.88;1.10;;;18.50;99.90;;;;;;12208284;28;20891;-80
2021/05/16 15:24:55;;;;;;;4.85;1.42;;;18.20;99.90;;;;;;12204873;28;20138;-80
2021/05/16 15:30:57;;;;;;;5.28;1.30;;;19.20;99.90;;;;;;12194516;29;20186;-80
2021/05/16 15:36:59;;;;;;;4.78;1.27;;;19.00;99.90;;;;;;12201802;29;20066;-81
2021/05/16 15:43:01;;;;;;;3.85;1.40;;;19.60;99.90;;;;;;12196113;28;20434;-80
2021/05/16 15:49:04;;;;;;;6.43;1.33;;;19.40;99.90;;;;;;12205524;28;20275;-81
2021/05/16 15:55:07;;;;;;;3.60;0.90;;;18.60;99.90;;;;;;12213910;28;20064;-81
2021/05/16 16:01:12;;;;;;;5.28;1.25;;;19.20;99.90;;;;;;12235792;28;20044;-81
2021/05/16 16:07:15;;;;;;;3.00;0.93;;;18.80;99.90;;;;;;12210897;28;20129;-80
2021/05/16 16:13:16;;;;;;;4.15;1.10;;;18.40;99.90;;;;;;12216451;28;20151;-80
2021/05/16 16:19:18;;;;;;;3.20;0.80;;;17.60;99.90;;;;;;12205279;28;20206;-80
2021/05/16 16:25:20;;;;;;;4.30;1.00;;;16.90;99.90;;;;;;12204691;28;20500;-80
2021/05/16 16:31:22;;;;;;;4.07;0.95;;;17.60;99.90;;;;;;12206940;28;20040;-80
2021/05/16 16:37:29;;;;;;;5.38;1.15;;;17.70;99.90;;;;;;12203529;28;20058;-80
2021/05/16 16:43:31;;;;;;;4.10;0.90;;;17.70;99.90;;;;;;12204106;28;20111;-80
2021/05/16 16:49:33;;;;;;;4.07;1.02;;;18.50;99.90;;;;;;12201315;28;20040;-79
2021/05/16 16:55:35;;;;;;;6.05;1.40;;;17.80;99.90;;;;;;12217090;28;20432;-80
2021/05/16 17:01:37;;;;;;;2.10;0.70;;;17.20;99.90;;;;;;12205868;28;20127;-80
2021/05/16 17:07:39;;;;;;;4.70;1.50;;;17.80;99.90;;;;;;12207002;28;20552;-80
2021/05/16 17:13:41;;;;;;;4.20;1.20;;;17.90;99.90;;;;;;12209742;28;20055;-80
2021/05/16 17:19:44;;;;;;;4.20;1.00;;;19.30;99.90;;;;;;12210783;28;20432;-80
2021/05/16 17:25:46;;;;;;;6.68;1.80;;;20.30;99.90;;;;;;12202220;28;20063;-80
2021/05/16 17:31:47;;;;;;;5.82;1.50;;;20.10;99.90;;;;;;12210323;28;20118;-80
2021/05/16 17:37:50;;;;;;;3.53;1.17;;;20.10;99.90;;;;;;12217183;28;20592;-80
2021/05/16 17:43:51;;;;;;;6.20;1.25;;;18.90;99.90;;;;;;12207224;28;20124;-80
2021/05/16 17:49:53;;;;;;;4.15;1.17;;;17.70;99.90;;;;;;12208631;28;20142;-79
2021/05/16 17:55:55;;;;;;;4.18;1.23;;;16.90;99.90;;;;;;12207284;28;20427;-79
2021/05/16 18:01:57;;;;;;;8.20;1.38;;;16.10;99.90;;;;;;12206389;28;20134;-78
2021/05/16 18:07:59;;;;;;;7.10;1.50;;;16.00;99.90;;;;;;12206776;28;20385;-78
2021/05/16 18:14:02;;;;;;;7.97;1.75;;;14.20;99.90;;;;;;12204534;28;20044;-78
2021/05/16 18:20:06;;;;;;;6.45;1.42;;;12.60;99.90;;;;;;12200022;28;20080;-77
2021/05/16 18:26:09;;;;;;;3.53;1.00;;;11.70;99.90;;;;;;12197949;28;20044;-78
2021/05/16 18:32:12;;;;;;;5.97;1.20;;;11.50;99.90;;;;;;12209776;28;20071;-79
2021/05/16 18:38:14;;;;;;;3.92;1.40;;;11.50;99.90;;;;;;12203462;28;20094;-79
2021/05/16 18:44:15;;;;;;;2.60;1.00;;;12.20;99.90;;;;;;12203088;28;20040;-80
2021/05/16 18:50:19;;;;;;;5.10;1.55;;;11.20;99.90;;;;;;12201938;28;20076;-79
2021/05/16 18:56:20;;;;;;;4.45;2.15;;;11.70;99.90;;;;;;12154692;29;20202;-79
2021/05/16 19:02:22;;;;;;;11.15;1.55;;;11.90;99.90;;;;;;12153430;28;20116;-79
2021/05/16 19:08:25;;;;;;;2.47;1.20;;;11.70;99.90;;;;;;12158573;28;20068;-79
2021/05/16 19:14:26;;;;;;;12.90;2.08;;;11.10;99.90;;;;;;12249011;28;20056;-79
2021/05/16 19:20:28;;;;;;;3.60;1.50;;;11.10;99.90;;;;;;12212131;28;20500;-79
2021/05/16 19:26:30;;;;;;;4.68;1.35;;;11.30;99.90;;;;;;12206999;28;20090;-78
2021/05/16 19:32:32;;;;;;;1.50;0.80;;;11.30;99.90;;;;;;12202445;28;20200;-78
2021/05/16 19:38:34;;;;;;;1.40;0.95;;;11.40;99.90;;;;;;12212571;28;20048;-78
2021/05/16 19:44:36;;;;;;;9.88;1.20;;;11.50;99.90;;;;;;12203945;28;20507;-78
2021/05/16 19:50:49;;;;;;;7.57;1.20;;;11.40;99.90;;;;;;12216583;28;20048;-78
2021/05/16 19:56:51;;;;;;;3.85;1.00;;;11.40;99.90;;;;;;12205538;28;20583;-78
2021/05/16 20:02:53;;;;;;;7.10;1.10;;;10.90;99.90;;;;;;12203445;28;20071;-77
2021/05/16 20:08:55;;;;;;;2.33;1.10;;;10.50;99.90;;;;;;12214229;28;20080;-77
2021/05/16 20:15:10;;;;;;;3.58;1.40;;;10.30;99.90;;;;;;12205441;28;20062;-77
2021/05/16 20:21:12;;;;;;;3.10;1.45;;;10.20;99.90;;;;;;12208899;28;20067;-78
2021/05/16 20:27:14;;;;;;;3.28;0.90;;;10.20;99.90;;;;;;12213942;28;20429;-78
2021/05/16 20:33:18;;;;;;;2.08;1.00;;;10.20;99.90;;;;;;12197155;28;20135;-78
2021/05/16 20:39:21;;;;;;;1.83;1.27;;;10.00;99.90;;;;;;12210525;28;20134;-77
2021/05/16 20:45:35;;;;;;;3.75;1.30;;;10.00;99.90;;;;;;12285871;28;20454;-77
2021/05/16 20:51:37;;;;;;;2.40;1.20;;;10.00;99.90;;;;;;12203940;28;20067;-77
2021/05/16 20:57:38;;;;;;;3.78;1.50;;;10.10;99.90;;;;;;12203151;28;20052;-77
2021/05/16 21:03:41;;;;;;;5.18;1.42;;;10.00;99.90;;;;;;12209047;28;20078;-77
2021/05/16 21:09:43;;;;;;;1.75;0.80;;;10.10;99.90;;;;;;12204766;28;20497;-77
2021/05/16 21:15:46;;;;;;;2.40;0.90;;;10.60;99.90;;;;;;12196078;28;20498;-77
2021/05/16 21:21:48;;;;;;;3.90;0.80;;;11.00;99.90;;;;;;12202947;28;20477;-77
2021/05/16 21:27:50;;;;;;;2.33;1.10;;;11.20;99.90;;;;;;12204833;28;20056;-77
2021/05/16 21:33:52;;;;;;;2.30;1.17;;;11.20;99.90;;;;;;12202110;28;20257;-77
2021/05/16 21:39:54;;;;;;;3.05;1.40;;;11.10;99.90;;;;;;12201186;28;20611;-77
2021/05/16 21:45:56;;;;;;;3.20;1.33;;;11.00;99.90;;;;;;12203444;28;20075;-77
2021/05/16 21:51:58;;;;;;;3.25;1.33;;;10.80;99.90;;;;;;12202792;28;20047;-77
2021/05/16 21:58:01;;;;;;;2.53;1.52;;;10.80;99.90;;;;;;12200150;28;20879;-77
2021/05/16 22:04:03;;;;;;;2.55;1.50;;;10.90;99.90;;;;;;12195226;28;20105;-78
2021/05/16 22:10:07;;;;;;;3.60;1.73;;;10.90;99.90;;;;;;12200822;28;20048;-77
2021/05/16 22:16:09;;;;;;;5.28;1.88;;;10.80;99.90;;;;;;12199815;28;20052;-77
2021/05/16 22:22:11;;;;;;;5.47;2.13;;;10.90;99.90;;;;;;12200550;28;20752;-77
2021/05/16 22:28:13;;;;;;;4.40;2.17;;;10.70;99.90;;;;;;12198458;28;20127;-78
2021/05/16 22:34:15;;;;;;;3.33;1.90;;;11.00;99.90;;;;;;12209079;28;20130;-78
2021/05/16 22:40:18;;;;;;;4.20;1.92;;;11.00;99.90;;;;;;12202145;28;20056;-78
2021/05/16 22:46:19;;;;;;;3.33;2.20;;;11.00;99.90;;;;;;12200876;28;20130;-77
2021/05/16 22:52:21;;;;;;;4.65;2.15;;;10.70;99.90;;;;;;12202419;28;20071;-77
2021/05/16 22:58:23;;;;;;;4.55;2.38;;;10.80;99.90;;;;;;12203254;28;20052;-77
2021/05/16 23:04:25;;;;;;;4.65;2.25;;;10.80;99.90;;;;;;12194115;28;20118;-77
2021/05/16 23:10:27;;;;;;;5.47;1.90;;;10.50;99.90;;;;;;12205094;28;20048;-77
2021/05/16 23:16:31;;;;;;;4.32;2.10;;;9.90;99.90;;;;;;12201382;28;20135;-77
2021/05/16 23:22:33;;;;;;;4.47;2.17;;;9.70;99.90;;;;;;12201900;28;20098;-77
2021/05/16 23:28:35;;;;;;;6.43;2.88;;;9.60;99.90;;;;;;12205894;28;20150;-77
2021/05/16 23:34:37;;;;;;;6.95;3.22;;;9.40;99.90;;;;;;12196422;28;20142;-77
2021/05/16 23:40:39;;;;;;;7.70;4.03;;;9.30;99.90;;;;;;12208199;28;20063;-77
2021/05/16 23:46:41;;;;;;;8.30;4.47;;;9.30;99.90;;;;;;12202678;28;20102;-77
2021/05/16 23:52:43;;;;;;;6.47;5.32;;;9.30;99.90;;;;;;12204720;28;20052;-77
2021/05/16 23:58:45;;;;;;;9.95;5.85;;;9.20;99.90;;;;;;12197410;28;20056;-77
